Terminal Aerodrome Forecast
Issued by NWS

Home | Current Version | Previous Version | Text Only | Print | Product List | Glossary On
Versions: 1 2 3 4 5 6 7 8 9 10 11 12 13
000
FTUS46 KHNX 020539
TAFMER
TAF
KMER 020539Z 0206/0306 33008KT P6SM VCTS SCT060 BKN100CB
      TEMPO 0206/0209 VRB10G20KT 6SM -TSRA OVC060CB
     FM020900 26003KT P6SM SCT080 BKN150
      TEMPO 0209/0212 P6SM -SHRA BKN080
     FM022100 29008KT P6SM BKN150
      AMD NOT SKED=

USA.gov is the U.S. government's official web portal to all federal, state and local government web resources and services.